Time;durP1;ratioP1;P1;durP2;ratioP2;P2;SDS_P1;SDS_P2;PMS_P1;PMS_P2;Temp;Humidity;BMP_temperature;BMP_pressure;BME280_temperature;BME280_humidity;BME280_pressure;Samples;Min_cycle;Max_cycle;Signal;HPM_P1;HPM_P2
2023/07/10 00:00:19;;;;;;;;;;;17.60;87.30;;;;;;5078708;28;19969;-84
2023/07/10 00:02:45;;;;;;;;;;;17.60;87.60;;;;;;5077005;28;19893;-82
2023/07/10 00:05:14;;;;;;;;;;;17.50;88.00;;;;;;5078676;28;19948;-83
2023/07/10 00:07:40;;;;;;;;;;;17.50;87.90;;;;;;5089743;28;19908;-84
2023/07/10 00:10:08;;;;;;;;;;;17.50;88.20;;;;;;5076235;28;19936;-87
2023/07/10 00:12:34;;;;;;;;;;;17.50;88.40;;;;;;5089410;28;19921;-82
2023/07/10 00:15:00;;;;;;;;;;;17.50;88.60;;;;;;5084887;28;19962;-82
2023/07/10 00:17:26;;;;;;;;;;;17.40;88.80;;;;;;5083973;28;20292;-80
2023/07/10 00:19:51;;;;;;;;;;;17.50;88.90;;;;;;5082003;28;19939;-80
2023/07/10 00:22:17;;;;;;;;;;;17.40;88.90;;;;;;5075792;28;19915;-81
2023/07/10 00:24:44;;;;;;;;;;;17.30;89.20;;;;;;5072384;28;19928;-83
2023/07/10 00:27:11;;;;;;;;;;;17.30;89.20;;;;;;5088069;28;19999;-85
2023/07/10 00:29:37;;;;;;;;;;;17.30;89.40;;;;;;5061473;28;19920;-83
2023/07/10 00:32:09;;;;;;;;;;;17.30;89.60;;;;;;5066964;28;19959;-83
2023/07/10 00:34:35;;;;;;;;;;;17.20;89.90;;;;;;5072487;28;19943;-84
2023/07/10 00:37:00;;;;;;;;;;;17.20;90.10;;;;;;5056372;28;19913;-83
2023/07/10 00:39:28;;;;;;;;;;;17.20;90.10;;;;;;5075895;28;19908;-81
2023/07/10 00:41:55;;;;;;;;;;;17.10;90.10;;;;;;5080554;28;19908;-83
2023/07/10 00:44:23;;;;;;;;;;;17.10;90.20;;;;;;5072161;28;19909;-82
2023/07/10 00:46:54;;;;;;;;;;;17.10;90.40;;;;;;5061009;28;19916;-82
2023/07/10 00:49:31;;;;;;;;;;;17.10;90.60;;;;;;5077251;28;19998;-81
2023/07/10 00:52:08;;;;;;;;;;;17.00;90.80;;;;;;5084815;28;19927;-82
2023/07/10 00:54:39;;;;;;;;;;;17.00;90.70;;;;;;5098370;28;19927;-82
2023/07/10 00:57:12;;;;;;;;;;;17.00;90.70;;;;;;5082633;28;19909;-82
2023/07/10 00:59:39;;;;;;;;;;;17.00;90.70;;;;;;5059703;28;19913;-83
2023/07/10 01:02:08;;;;;;;;;;;17.00;90.90;;;;;;5082125;28;20315;-82
2023/07/10 01:04:34;;;;;;;;;;;16.90;90.90;;;;;;5072218;28;19909;-82
2023/07/10 01:07:00;;;;;;;;;;;16.90;90.90;;;;;;5070555;28;19951;-82
2023/07/10 01:09:27;;;;;;;;;;;16.90;91.00;;;;;;5069791;28;19916;-82
2023/07/10 01:11:53;;;;;;;;;;;16.80;91.00;;;;;;5056679;28;19955;-82
2023/07/10 01:14:19;;;;;;;;;;;16.80;91.10;;;;;;5074108;28;19952;-83
2023/07/10 01:16:45;;;;;;;;;;;16.70;91.20;;;;;;5076707;28;19954;-83
2023/07/10 01:19:23;;;;;;;;;;;16.70;91.30;;;;;;5077001;28;19912;-81
2023/07/10 01:21:50;;;;;;;;;;;16.70;91.40;;;;;;5059858;28;19992;-82
2023/07/10 01:24:16;;;;;;;;;;;16.70;91.70;;;;;;5076450;28;19958;-82
2023/07/10 01:26:42;;;;;;;;;;;16.60;91.70;;;;;;5075829;28;19912;-82
2023/07/10 01:29:20;;;;;;;;;;;16.60;91.80;;;;;;5057657;28;19944;-82
2023/07/10 01:31:46;;;;;;;;;;;16.60;91.80;;;;;;5083557;28;19912;-81
2023/07/10 01:34:12;;;;;;;;;;;16.50;91.90;;;;;;5088766;28;19927;-83
2023/07/10 01:36:39;;;;;;;;;;;16.50;91.90;;;;;;5083652;28;19950;-82
2023/07/10 01:39:10;;;;;;;;;;;16.50;92.00;;;;;;5067161;28;19908;-82
2023/07/10 01:41:36;;;;;;;;;;;;;;;;;;5059686;28;19920;-82
2023/07/10 01:44:02;;;;;;;;;;;;;;;;;;5056696;28;19914;-83
2023/07/10 01:46:28;;;;;;;;;;;;;;;;;;5054499;28;19920;-82
2023/07/10 01:48:54;;;;;;;;;;;;;;;;;;5067886;28;19909;-83
2023/07/10 01:51:20;;;;;;;;;;;;;;;;;;5059194;28;19909;-82
2023/07/10 01:53:46;;;;;;;;;;;;;;;;;;5073217;28;19966;-82
2023/07/10 01:56:12;;;;;;;;;;;;;;;;;;5064270;28;19916;-83
2023/07/10 01:58:38;;;;;;;;;;;;;;;;;;5095178;28;19897;-82
2023/07/10 02:01:04;;;;;;;;;;;;;;;;;;5077151;28;19951;-83
2023/07/10 02:03:30;;;;;;;;;;;;;;;;;;5065330;28;19951;-82
2023/07/10 02:05:56;;;;;;;;;;;;;;;;;;5079871;28;19912;-81
2023/07/10 02:08:22;;;;;;;;;;;;;;;;;;5076302;28;20502;-82
2023/07/10 02:10:48;;;;;;;;;;;;;;;;;;5060501;28;20023;-81
2023/07/10 02:13:14;;;;;;;;;;;;;;;;;;5091176;28;19972;-80
2023/07/10 02:15:40;;;;;;;;;;;;;;;;;;5072657;28;19983;-82
2023/07/10 02:18:06;;;;;;;;;;;;;;;;;;5059725;28;19912;-83
2023/07/10 02:20:32;;;;;;;;;;;;;;;;;;5077654;28;19928;-83
2023/07/10 02:22:58;;;;;;;;;;;;;;;;;;5075821;28;19908;-82
2023/07/10 02:25:24;;;;;;;;;;;;;;;;;;5074525;28;20319;-82
2023/07/10 02:27:50;;;;;;;;;;;;;;;;;;5075433;28;19909;-82
2023/07/10 02:30:17;;;;;;;;;;;;;;;;;;5057166;28;19915;-83
2023/07/10 02:32:43;;;;;;;;;;;;;;;;;;5075267;28;20429;-82
2023/07/10 02:35:09;;;;;;;;;;;;;;;;;;5074701;28;19946;-82
2023/07/10 02:37:35;;;;;;;;;;;;;;;;;;5075099;28;19962;-83
2023/07/10 02:40:01;;;;;;;;;;;;;;;;;;5090948;28;19913;-82
2023/07/10 02:42:29;;;;;;;;;;;;;;;;;;5091670;28;19915;-82
2023/07/10 02:44:55;;;;;;;;;;;;;;;;;;5058791;28;20059;-82
2023/07/10 02:47:20;;;;;;;;;;;;;;;;;;5068180;28;19952;-82
2023/07/10 02:49:46;;;;;;;;;;;;;;;;;;5074846;28;20274;-81
2023/07/10 02:52:12;;;;;;;;;;;;;;;;;;5074913;28;19912;-80
2023/07/10 02:54:38;;;;;;;;;;;;;;;;;;5070299;28;20345;-82
2023/07/10 02:57:04;;;;;;;;;;;;;;;;;;5046601;28;19980;-81
2023/07/10 02:59:30;;;;;;;;;;;;;;;;;;5074799;28;20362;-81
2023/07/10 03:01:56;;;;;;;;;;;;;;;;;;5076186;28;19908;-81
2023/07/10 03:04:22;;;;;;;;;;;;;;;;;;5085038;28;19962;-82
2023/07/10 03:06:48;;;;;;;;;;;;;;;;;;5071789;28;20281;-83
2023/07/10 03:09:14;;;;;;;;;;;;;;;;;;5081455;28;19919;-82
2023/07/10 03:11:40;;;;;;;;;;;;;;;;;;5075025;28;19970;-80
2023/07/10 03:14:06;;;;;;;;;;;;;;;;;;5054957;28;19917;-83
2023/07/10 03:16:32;;;;;;;;;;;;;;;;;;5070636;28;20297;-81
2023/07/10 03:18:58;;;;;;;;;;;;;;;;;;5077185;28;20007;-82
2023/07/10 03:21:25;;;;;;;;;;;;;;;;;;5077855;28;19909;-81
2023/07/10 03:23:51;;;;;;;;;;;;;;;;;;5067268;28;19931;-81
2023/07/10 03:26:17;;;;;;;;;;;;;;;;;;5059323;28;19920;-83
2023/07/10 03:28:43;;;;;;;;;;;;;;;;;;5079892;28;20062;-81
2023/07/10 03:31:09;;;;;;;;;;;;;;;;;;5060605;28;19961;-81
2023/07/10 03:33:35;;;;;;;;;;;;;;;;;;5086041;28;19909;-82
2023/07/10 03:36:01;;;;;;;;;;;;;;;;;;5095719;28;19928;-83
2023/07/10 03:38:27;;;;;;;;;;;;;;;;;;5065750;28;20026;-81
2023/07/10 03:40:53;;;;;;;;;;;;;;;;;;5079997;28;19940;-84
2023/07/10 03:43:19;;;;;;;;;;;;;;;;;;5082706;28;19909;-83
2023/07/10 03:45:45;;;;;;;;;;;;;;;;;;5081158;28;20441;-83
2023/07/10 03:48:11;;;;;;;;;;;;;;;;;;5068528;28;19912;-80
2023/07/10 03:50:37;;;;;;;;;;;;;;;;;;5084167;28;19909;-81
2023/07/10 03:53:03;;;;;;;;;;;;;;;;;;5072054;28;19915;-82
2023/07/10 03:55:29;;;;;;;;;;;;;;;;;;5084200;28;20393;-83
2023/07/10 03:57:55;;;;;;;;;;;;;;;;;;5080853;28;19976;-82
2023/07/10 04:00:21;;;;;;;;;;;;;;;;;;5079727;28;19912;-82
2023/07/10 04:02:47;;;;;;;;;;;;;;;;;;5080550;28;19912;-82
2023/07/10 04:05:13;;;;;;;;;;;;;;;;;;5085202;28;19962;-82
2023/07/10 04:07:39;;;;;;;;;;;;;;;;;;5089314;28;20305;-83
2023/07/10 04:10:05;;;;;;;;;;;;;;;;;;5077605;28;19908;-82
2023/07/10 04:12:31;;;;;;;;;;;;;;;;;;5077951;28;19927;-80
2023/07/10 04:14:57;;;;;;;;;;;;;;;;;;5094207;28;19942;-81
2023/07/10 04:17:23;;;;;;;;;;;;;;;;;;5076453;28;20349;-84
2023/07/10 04:19:49;;;;;;;;;;;;;;;;;;5081125;28;19915;-82
2023/07/10 04:22:14;;;;;;;;;;;;;;;;;;5062110;28;20015;-81
2023/07/10 04:24:41;;;;;;;;;;;;;;;;;;5078987;28;20377;-83
2023/07/10 04:27:07;;;;;;;;;;;;;;;;;;5063994;28;19909;-82
2023/07/10 04:29:33;;;;;;;;;;;;;;;;;;5060763;28;19943;-84
2023/07/10 04:31:59;;;;;;;;;;;;;;;;;;5060237;28;19908;-79
2023/07/10 04:34:25;;;;;;;;;;;;;;;;;;5077279;28;19921;-82
2023/07/10 04:36:51;;;;;;;;;;;;;;;;;;5077658;28;19915;-83
2023/07/10 04:39:16;;;;;;;;;;;;;;;;;;5077288;28;19912;-82
2023/07/10 04:41:44;;;;;;;;;;;;;;;;;;5079232;28;19915;-82
2023/07/10 04:44:10;;;;;;;;;;;;;;;;;;5079323;28;20007;-82
2023/07/10 04:46:36;;;;;;;;;;;;;;;;;;5078966;28;19908;-82
2023/07/10 04:49:02;;;;;;;;;;;;;;;;;;5080557;28;19923;-82
2023/07/10 04:51:28;;;;;;;;;;;;;;;;;;5080456;28;19966;-80
2023/07/10 04:53:54;;;;;;;;;;;;;;;;;;5078256;28;19920;-82
2023/07/10 04:56:20;;;;;;;;;;;;;;;;;;5059383;28;19908;-82
2023/07/10 04:58:46;;;;;;;;;;;;;;;;;;5059477;28;20369;-82
2023/07/10 05:01:12;;;;;;;;;;;;;;;;;;5059931;28;19977;-83
2023/07/10 05:03:38;;;;;;;;;;;;;;;;;;5077996;28;19962;-82
2023/07/10 05:06:04;;;;;;;;;;;;;;;;;;5059205;28;19909;-83
2023/07/10 05:08:30;;;;;;;;;;;;;;;;;;5078401;28;19913;-83
2023/07/10 05:10:56;;;;;;;;;;;;;;;;;;5070057;28;20022;-80
2023/07/10 05:13:22;;;;;;;;;;;;;;;;;;5077446;28;20004;-81
2023/07/10 05:15:48;;;;;;;;;;;;;;;;;;5081991;28;19920;-83
2023/07/10 05:18:14;;;;;;;;;;;;;;;;;;5077680;28;19965;-83
2023/07/10 05:20:40;;;;;;;;;;;;;;;;;;5080489;28;19909;-82
2023/07/10 05:23:06;;;;;;;;;;;;;;;;;;5074378;28;19913;-82
2023/07/10 05:25:32;;;;;;;;;;;;;;;;;;5072490;28;20362;-81
2023/07/10 05:27:58;;;;;;;;;;;;;;;;;;5076296;28;19915;-82
2023/07/10 05:30:24;;;;;;;;;;;;;;;;;;5079888;28;19908;-81
2023/07/10 05:32:50;;;;;;;;;;;;;;;;;;5063078;28;19932;-81
2023/07/10 05:35:16;;;;;;;;;;;;;;;;;;5082943;28;19916;-82
2023/07/10 05:37:42;;;;;;;;;;;;;;;;;;5078768;28;20377;-84
2023/07/10 05:40:08;;;;;;;;;;;16.50;92.10;;;;;;5078317;28;20011;-82
2023/07/10 05:42:34;;;;;;;;;;;;;;;;;;5061892;28;19917;-82
2023/07/10 05:45:00;;;;;;;;;;;24.70;59.80;;;;;;5080078;28;19909;-80
2023/07/10 05:47:25;;;;;;;;;;;25.40;59.00;;;;;;5074421;28;19909;-83
2023/07/10 05:49:51;;;;;;;;;;;26.00;57.00;;;;;;5078590;28;19917;-82
2023/07/10 05:52:17;;;;;;;;;;;26.70;56.70;;;;;;5080604;28;19960;-81
2023/07/10 05:54:42;;;;;;;;;;;26.90;54.60;;;;;;5075876;28;19917;-81
2023/07/10 05:57:09;;;;;;;;;;;27.30;53.10;;;;;;5064770;28;20349;-80
2023/07/10 05:59:35;;;;;;;;;;;27.30;53.20;;;;;;5077866;28;20007;-79
2023/07/10 06:02:00;;;;;;;;;;;27.90;53.40;;;;;;5075297;28;20370;-80
2023/07/10 06:04:26;;;;;;;;;;;28.10;51.50;;;;;;5064761;28;19917;-79
2023/07/10 06:06:52;;;;;;;;;;;28.40;50.00;;;;;;5054561;28;19923;-80
2023/07/10 06:09:17;;;;;;;;;;;28.00;48.90;;;;;;5065457;28;20029;-77
2023/07/10 06:11:43;;;;;;;;;;;27.70;50.40;;;;;;5067630;28;20408;-79
2023/07/10 06:14:09;;;;;;;;;;;27.80;50.00;;;;;;5073168;28;20385;-81
2023/07/10 06:16:34;;;;;;;;;;;28.30;48.80;;;;;;5073300;28;19955;-79
2023/07/10 06:19:00;;;;;;;;;;;29.20;47.90;;;;;;5073533;28;19908;-78
2023/07/10 06:21:26;;;;;;;;;;;;;;;;;;5074387;28;19939;-78
2023/07/10 06:23:52;;;;;;;;;;;;;;;;;;5073961;28;19923;-78
2023/07/10 06:26:18;;;;;;;;;;;;;;;;;;5073727;28;19912;-79
2023/07/10 06:28:44;;;;;;;;;;;;;;;;;;5059476;28;20388;-79
2023/07/10 06:31:10;;;;;;;;;;;;;;;;;;5073975;28;19908;-80
2023/07/10 06:33:36;;;;;;;;;;;;;;;;;;5062495;28;19909;-80
2023/07/10 06:36:02;;;;;;;;;;;;;;;;;;5072517;28;20362;-80
2023/07/10 06:38:28;;;;;;;;;;;31.40;44.20;;;;;;5055866;28;19908;-79
2023/07/10 06:40:54;;;;;;;;;;;33.00;42.90;;;;;;5073784;28;19912;-80
2023/07/10 06:43:20;;;;;;;;;;;32.60;41.90;;;;;;5074324;28;19938;-79
2023/07/10 06:45:46;;;;;;;;;;;32.40;42.60;;;;;;5055249;28;19909;-80
2023/07/10 06:48:12;;;;;;;;;;;32.30;42.50;;;;;;5055038;28;19923;-79
2023/07/10 06:50:38;;;;;;;;;;;31.50;40.80;;;;;;5073130;28;19962;-80
2023/07/10 06:53:07;;;;;;;;;;;30.80;42.50;;;;;;5072958;28;19915;-80
2023/07/10 06:55:33;;;;;;;;;;;30.50;44.00;;;;;;5072673;28;19920;-79
2023/07/10 06:57:58;;;;;;;;;;;31.10;43.00;;;;;;5073895;28;20396;-80
2023/07/10 07:00:24;;;;;;;;;;;32.50;42.50;;;;;;5065129;28;20007;-80
2023/07/10 07:02:50;;;;;;;;;;;;;;;;;;5068999;28;19953;-81
2023/07/10 07:05:16;;;;;;;;;;;33.10;40.70;;;;;;5056700;28;19908;-80
2023/07/10 07:07:43;;;;;;;;;;;33.30;41.50;;;;;;5074305;28;19924;-81
2023/07/10 07:10:12;;;;;;;;;;;;;;;;;;5074529;28;19908;-79
2023/07/10 07:12:39;;;;;;;;;;;33.70;41.10;;;;;;5072679;28;19920;-79
2023/07/10 07:15:05;;;;;;;;;;;33.70;40.30;;;;;;5055839;28;20061;-79
2023/07/10 07:17:31;;;;;;;;;;;33.30;39.80;;;;;;5075004;28;19908;-79
2023/07/10 07:19:57;;;;;;;;;;;32.40;40.70;;;;;;5075470;28;19918;-81
2023/07/10 07:22:22;;;;;;;;;;;32.50;41.50;;;;;;5074409;28;20007;-80
2023/07/10 07:24:48;;;;;;;;;;;32.80;40.40;;;;;;5074266;28;19955;-80
2023/07/10 07:27:14;;;;;;;;;;;32.40;40.90;;;;;;5056841;28;19913;-80
2023/07/10 07:29:39;;;;;;;;;;;32.60;41.50;;;;;;5080330;28;20270;-81
2023/07/10 07:32:05;;;;;;;;;;;32.80;40.60;;;;;;5080576;28;19915;-79
2023/07/10 07:34:31;;;;;;;;;;;33.00;40.80;;;;;;5047670;28;19928;-79
2023/07/10 07:36:57;;;;;;;;;;;33.70;41.20;;;;;;5076644;28;19913;-81
2023/07/10 07:39:28;;;;;;;;;;;34.60;40.30;;;;;;5075520;28;19948;-78
2023/07/10 07:41:53;;;;;;;;;;;32.70;40.00;;;;;;5074202;28;19970;-79
2023/07/10 07:44:19;;;;;;;;;;;32.40;41.00;;;;;;5077955;28;19912;-80
2023/07/10 07:46:45;;;;;;;;;;;32.40;41.40;;;;;;5056292;28;19962;-80
2023/07/10 07:49:11;;;;;;;;;;;33.10;41.20;;;;;;5073700;28;19908;-78
2023/07/10 07:51:37;;;;;;;;;;;34.10;40.20;;;;;;5067641;28;19920;-79
2023/07/10 07:54:04;;;;;;;;;;;34.30;39.90;;;;;;5067443;28;19916;-80
2023/07/10 07:56:30;;;;;;;;;;;34.90;38.70;;;;;;5055323;28;19958;-80
2023/07/10 07:58:55;;;;;;;;;;;33.00;39.10;;;;;;5054430;28;19922;-81
2023/07/10 08:01:21;;;;;;;;;;;;;;;;;;5074063;28;20395;-81
2023/07/10 08:03:47;;;;;;;;;;;32.10;41.10;;;;;;5079615;28;19919;-80
2023/07/10 08:06:13;;;;;;;;;;;32.60;41.30;;;;;;5078108;28;19908;-80
2023/07/10 08:08:38;;;;;;;;;;;33.40;41.10;;;;;;5072189;28;19909;-81
2023/07/10 08:11:05;;;;;;;;;;;34.60;39.60;;;;;;5064695;28;19952;-79
2023/07/10 08:13:31;;;;;;;;;;;34.80;38.90;;;;;;5076233;28;19908;-79
2023/07/10 08:15:57;;;;;;;;;;;35.20;38.90;;;;;;5075383;28;19931;-79
2023/07/10 08:18:23;;;;;;;;;;;34.90;38.70;;;;;;5075833;28;20447;-80
2023/07/10 08:20:48;;;;;;;;;;;34.00;38.80;;;;;;5070926;28;19915;-79
2023/07/10 08:23:14;;;;;;;;;;;32.90;39.60;;;;;;5074890;28;19908;-80
2023/07/10 08:25:40;;;;;;;;;;;31.80;41.00;;;;;;5076530;28;19958;-80
2023/07/10 08:28:06;;;;;;;;;;;32.20;41.10;;;;;;5078514;28;19909;-83
2023/07/10 08:30:31;;;;;;;;;;;32.60;41.20;;;;;;5076866;28;20297;-80
2023/07/10 08:32:57;;;;;;;;;;;33.00;39.80;;;;;;5076272;28;19909;-80
2023/07/10 08:35:23;;;;;;;;;;;32.10;40.10;;;;;;5076207;28;19916;-81
2023/07/10 08:37:49;;;;;;;;;;;32.00;40.80;;;;;;5075698;28;19934;-79
2023/07/10 08:40:17;;;;;;;;;;;32.40;41.10;;;;;;5074755;28;19920;-80
2023/07/10 08:42:43;;;;;;;;;;;32.50;40.80;;;;;;5053820;28;19970;-77
2023/07/10 08:45:14;;;;;;;;;;;31.10;40.20;;;;;;5064753;28;19923;-79
2023/07/10 08:47:43;;;;;;;;;;;29.80;41.50;;;;;;5075519;28;20315;-80
2023/07/10 08:50:20;;;;;;;;;;;29.80;43.40;;;;;;5076417;28;19909;-78
2023/07/10 08:52:55;;;;;;;;;;;30.40;42.90;;;;;;5061562;28;19920;-80
2023/07/10 08:55:36;;;;;;;;;;;31.40;42.30;;;;;;5076291;28;20346;-79
2023/07/10 08:58:02;;;;;;;;;;;32.40;40.80;;;;;;5074339;28;19955;-79
2023/07/10 09:00:32;;;;;;;;;;;32.40;40.70;;;;;;5065692;28;20000;-79
2023/07/10 09:02:58;;;;;;;;;;;32.70;41.10;;;;;;5072322;28;19908;-82
2023/07/10 09:05:29;;;;;;;;;;;32.40;40.00;;;;;;5060307;28;19916;-80
2023/07/10 09:07:56;;;;;;;;;;;31.00;41.10;;;;;;5075653;28;19908;-81
2023/07/10 09:10:54;;;;;;;;;;;30.50;42.30;;;;;;5061244;28;20421;-80
2023/07/10 09:13:46;;;;;;;;;;;29.50;42.60;;;;;;5031571;28;20495;-80
2023/07/10 09:16:14;;;;;;;;;;;28.80;44.70;;;;;;5042511;28;19973;-81
2023/07/10 09:18:40;;;;;;;;;;;;;;;;;;5075150;28;19909;-80
2023/07/10 09:21:06;;;;;;;;;;;;;;;;;;5068452;28;19955;-80
2023/07/10 09:23:33;;;;;;;;;;;29.00;44.20;;;;;;5070405;28;19920;-79
2023/07/10 09:26:08;;;;;;;;;;;25.10;50.00;;;;;;5075539;28;19915;-80
2023/07/10 09:28:34;;;;;;;;;;;24.30;51.30;;;;;;5076010;28;19915;-80
2023/07/10 09:31:08;;;;;;;;;;;24.30;52.30;;;;;;5066604;28;19912;-81
2023/07/10 09:33:41;;;;;;;;;;;25.40;51.70;;;;;;5075857;28;20010;-81
2023/07/10 09:36:15;;;;;;;;;;;26.30;49.40;;;;;;5076325;28;19917;-79
2023/07/10 09:38:42;;;;;;;;;;;26.70;48.80;;;;;;5079879;28;20288;-81
2023/07/10 09:41:19;;;;;;;;;;;27.00;48.90;;;;;;5078150;28;19961;-80
2023/07/10 09:43:58;;;;;;;;;;;27.20;48.00;;;;;;5075871;28;19915;-80
2023/07/10 09:46:26;;;;;;;;;;;26.60;47.80;;;;;;5056401;28;19919;-79
2023/07/10 09:48:53;;;;;;;;;;;25.80;49.10;;;;;;5057295;28;20003;-80
2023/07/10 09:51:19;;;;;;;;;;;24.70;50.30;;;;;;5057022;28;19943;-79
2023/07/10 09:53:50;;;;;;;;;;;23.80;52.30;;;;;;5056827;28;19995;-80
2023/07/10 09:56:20;;;;;;;;;;;23.50;53.70;;;;;;5074749;28;19909;-80
2023/07/10 09:58:46;;;;;;;;;;;23.40;54.30;;;;;;5056351;28;20061;-80
2023/07/10 10:01:12;;;;;;;;;;;23.50;54.10;;;;;;5074796;28;19970;-78
2023/07/10 10:03:39;;;;;;;;;;;23.60;54.30;;;;;;5075513;28;19919;-79
2023/07/10 10:06:05;;;;;;;;;;;23.60;54.30;;;;;;5075912;28;20389;-81
2023/07/10 10:08:32;;;;;;;;;;;23.70;54.40;;;;;;5064093;28;19962;-79
2023/07/10 10:11:12;;;;;;;;;;;23.90;54.00;;;;;;5077185;28;19916;-80
2023/07/10 10:13:48;;;;;;;;;;;24.20;53.50;;;;;;5076836;28;19909;-80
2023/07/10 10:16:14;;;;;;;;;;;24.10;53.00;;;;;;5067446;28;19923;-79
2023/07/10 10:18:44;;;;;;;;;;;23.80;53.60;;;;;;5076355;28;20002;-80
2023/07/10 10:21:12;;;;;;;;;;;23.70;54.20;;;;;;5077742;28;19908;-81
2023/07/10 10:23:39;;;;;;;;;;;23.40;54.90;;;;;;5057682;28;20282;-79
2023/07/10 10:26:25;;;;;;;;;;;23.20;55.50;;;;;;5071790;28;20290;-79
2023/07/10 10:29:09;;;;;;;;;;;23.30;55.90;;;;;;5057816;28;20362;-80
2023/07/10 10:31:42;;;;;;;;;;;23.10;55.90;;;;;;5076605;28;20449;-77
2023/07/10 10:34:08;;;;;;;;;;;22.50;57.00;;;;;;5057209;28;19971;-78
2023/07/10 10:37:00;;;;;;;;;;;21.90;58.60;;;;;;5073262;28;19912;-80
2023/07/10 10:39:41;;;;;;;;;;;21.50;59.20;;;;;;5025741;28;20332;-82
2023/07/10 10:42:13;;;;;;;;;;;21.40;59.80;;;;;;5077041;28;19913;-77
2023/07/10 10:44:49;;;;;;;;;;;21.40;60.50;;;;;;5067589;28;19915;-78
2023/07/10 10:47:19;;;;;;;;;;;21.40;60.20;;;;;;5084186;28;19909;-79
2023/07/10 10:49:44;;;;;;;;;;;21.40;60.50;;;;;;5070603;28;19968;-79
2023/07/10 10:52:19;;;;;;;;;;;21.30;61.00;;;;;;5070209;28;19913;-80
2023/07/10 10:54:59;;;;;;;;;;;21.30;61.30;;;;;;5075392;28;19917;-79
2023/07/10 10:57:43;;;;;;;;;;;21.20;61.80;;;;;;5063005;28;20003;-80
2023/07/10 11:00:33;;;;;;;;;;;21.30;62.60;;;;;;5060835;28;19919;-80
2023/07/10 11:03:14;;;;;;;;;;;21.10;62.40;;;;;;5074393;28;19916;-80
2023/07/10 11:05:43;;;;;;;;;;;20.90;62.60;;;;;;5075097;28;20370;-81
2023/07/10 11:08:13;;;;;;;;;;;20.90;62.70;;;;;;5074645;28;19916;-80
2023/07/10 11:10:40;;;;;;;;;;;20.90;62.40;;;;;;5056776;28;20331;-80
2023/07/10 11:13:13;;;;;;;;;;;21.10;62.30;;;;;;5074697;28;20006;-80
2023/07/10 11:15:39;;;;;;;;;;;21.20;62.10;;;;;;5068809;28;19927;-80
2023/07/10 11:18:05;;;;;;;;;;;21.30;62.20;;;;;;5064940;28;20336;-81
2023/07/10 11:20:31;;;;;;;;;;;21.50;62.20;;;;;;5060723;28;19912;-79
2023/07/10 11:22:58;;;;;;;;;;;21.50;62.10;;;;;;5075221;28;19951;-79
2023/07/10 11:25:33;;;;;;;;;;;21.40;63.00;;;;;;5074633;28;19909;-79
2023/07/10 11:28:03;;;;;;;;;;;21.30;62.70;;;;;;5075526;28;19999;-79
2023/07/10 11:30:33;;;;;;;;;;;21.00;63.30;;;;;;5075925;28;19908;-80
2023/07/10 11:33:04;;;;;;;;;;;20.90;63.60;;;;;;5058359;28;19939;-79
2023/07/10 11:35:31;;;;;;;;;;;21.00;64.00;;;;;;5078288;28;19923;-80
2023/07/10 11:37:59;;;;;;;;;;;21.10;63.80;;;;;;5078483;28;20004;-79
2023/07/10 11:40:28;;;;;;;;;;;21.30;63.60;;;;;;5060462;28;20007;-80
2023/07/10 11:43:14;;;;;;;;;;;21.60;62.90;;;;;;5077675;28;19909;-81
2023/07/10 11:45:50;;;;;;;;;;;21.90;62.00;;;;;;5015383;28;20421;-81
2023/07/10 11:48:34;;;;;;;;;;;22.30;61.00;;;;;;5066564;28;20000;-80
2023/07/10 11:51:03;;;;;;;;;;;22.00;61.00;;;;;;5057393;28;19912;-79
2023/07/10 11:53:29;;;;;;;;;;;21.80;61.80;;;;;;5077353;28;19953;-79
2023/07/10 11:56:04;;;;;;;;;;;21.80;62.20;;;;;;5077770;28;19917;-80
2023/07/10 11:58:31;;;;;;;;;;;21.80;62.10;;;;;;5076309;28;19908;-79
2023/07/10 12:01:17;;;;;;;;;;;21.70;62.30;;;;;;5077588;28;20054;-80
2023/07/10 12:03:43;;;;;;;;;;;21.30;62.70;;;;;;5076601;28;19908;-78
2023/07/10 12:06:15;;;;;;;;;;;21.10;63.40;;;;;;5061325;28;19916;-80
2023/07/10 12:08:43;;;;;;;;;;;21.10;64.30;;;;;;5059969;28;19916;-78
2023/07/10 12:11:25;;;;;;;;;;;21.00;63.70;;;;;;5074226;28;19921;-80
2023/07/10 12:13:50;;;;;;;;;;;21.00;64.00;;;;;;5057607;28;19971;-81
2023/07/10 12:16:18;;;;;;;;;;;20.90;65.50;;;;;;5057795;28;19908;-79
2023/07/10 12:18:43;;;;;;;;;;;20.70;65.40;;;;;;5058447;28;19955;-80
2023/07/10 12:21:17;;;;;;;;;;;20.80;66.70;;;;;;5057964;28;20294;-79
2023/07/10 12:23:53;;;;;;;;;;;20.70;67.40;;;;;;5057505;28;19992;-79
2023/07/10 12:26:19;;;;;;;;;;;20.50;68.60;;;;;;5071869;28;19939;-81
2023/07/10 12:28:44;;;;;;;;;;;20.20;69.50;;;;;;5055964;28;19909;-82
2023/07/10 12:31:12;;;;;;;;;;;20.00;69.70;;;;;;5073430;28;19909;-79
2023/07/10 12:33:38;;;;;;;;;;;20.00;70.20;;;;;;5056492;28;19909;-81
2023/07/10 12:36:22;;;;;;;;;;;19.90;70.40;;;;;;5054863;28;19923;-80
2023/07/10 12:38:49;;;;;;;;;;;19.80;70.80;;;;;;5056952;28;19908;-79
2023/07/10 12:41:17;;;;;;;;;;;19.90;71.40;;;;;;5045241;28;19916;-79
2023/07/10 12:43:46;;;;;;;;;;;20.20;70.90;;;;;;5058616;28;20015;-79
2023/07/10 12:46:21;;;;;;;;;;;20.30;70.30;;;;;;5055365;28;19922;-80
2023/07/10 12:48:48;;;;;;;;;;;20.40;69.90;;;;;;5055534;28;20072;-81
2023/07/10 12:51:22;;;;;;;;;;;20.50;69.60;;;;;;5055077;28;19909;-78
2023/07/10 12:53:48;;;;;;;;;;;20.40;69.80;;;;;;5054833;28;20362;-79
2023/07/10 12:56:14;;;;;;;;;;;20.30;69.90;;;;;;5070205;28;19909;-80
2023/07/10 12:58:39;;;;;;;;;;;20.30;70.10;;;;;;5055421;28;19909;-80
2023/07/10 13:01:19;;;;;;;;;;;20.30;70.20;;;;;;5057699;28;19935;-79
2023/07/10 13:03:57;;;;;;;;;;;20.10;71.10;;;;;;5055817;28;19908;-81
2023/07/10 13:06:23;;;;;;;;;;;19.80;71.80;;;;;;5055083;28;19917;-80
2023/07/10 13:08:49;;;;;;;;;;;19.70;73.10;;;;;;5069922;28;19909;-79
2023/07/10 13:11:19;;;;;;;;;;;19.60;73.80;;;;;;5047670;28;19927;-79
2023/07/10 13:13:45;;;;;;;;;;;19.50;73.70;;;;;;5040612;28;19958;-79
2023/07/10 13:16:16;;;;;;;;;;;19.60;74.10;;;;;;5053692;28;20016;-80
2023/07/10 13:18:41;;;;;;;;;;;19.70;74.10;;;;;;5037041;28;19928;-78
2023/07/10 13:21:12;;;;;;;;;;;19.90;73.80;;;;;;5054965;28;20373;-79
2023/07/10 13:23:37;;;;;;;;;;;20.10;73.60;;;;;;5054853;28;20313;-78
2023/07/10 13:26:16;;;;;;;;;;;20.20;72.70;;;;;;5054733;28;19908;-79
2023/07/10 13:28:42;;;;;;;;;;;20.40;72.30;;;;;;5058725;28;20259;-80
2023/07/10 13:31:08;;;;;;;;;;;20.40;71.90;;;;;;5063594;28;19916;-77
2023/07/10 13:33:35;;;;;;;;;;;20.30;72.40;;;;;;5048793;28;19994;-80
2023/07/10 13:36:01;;;;;;;;;;;20.20;72.60;;;;;;5054952;28;19923;-79
2023/07/10 13:38:27;;;;;;;;;;;19.90;73.30;;;;;;5053957;28;20425;-79
2023/07/10 13:40:53;;;;;;;;;;;19.70;74.30;;;;;;5053624;28;19944;-79
2023/07/10 13:43:20;;;;;;;;;;;19.70;74.90;;;;;;5054979;28;19909;-81
2023/07/10 13:45:51;;;;;;;;;;;19.70;75.30;;;;;;5046823;28;20397;-78
2023/07/10 13:48:17;;;;;;;;;;;19.70;75.30;;;;;;5025365;28;19913;-80
2023/07/10 13:50:44;;;;;;;;;;;19.70;75.70;;;;;;5047996;28;19963;-80
2023/07/10 13:53:21;;;;;;;;;;;19.70;76.00;;;;;;5054108;28;19909;-79
2023/07/10 13:55:48;;;;;;;;;;;19.90;75.80;;;;;;5054555;28;19970;-78
2023/07/10 13:58:21;;;;;;;;;;;19.90;75.90;;;;;;5054343;28;19909;-79
2023/07/10 14:00:48;;;;;;;;;;;19.70;76.30;;;;;;5055406;28;19939;-79
2023/07/10 14:03:15;;;;;;;;;;;19.40;76.80;;;;;;5053957;28;19920;-78
2023/07/10 14:05:41;;;;;;;;;;;19.30;77.60;;;;;;5045687;28;19951;-80
2023/07/10 14:08:19;;;;;;;;;;;19.10;78.30;;;;;;5056733;28;19920;-79
2023/07/10 14:10:45;;;;;;;;;;;19.00;79.60;;;;;;5047282;28;19931;-79
2023/07/10 14:13:11;;;;;;;;;;;18.80;79.30;;;;;;5058199;28;20341;-79
2023/07/10 14:15:41;;;;;;;;;;;18.70;79.60;;;;;;5051815;28;19921;-80
2023/07/10 14:18:12;;;;;;;;;;;18.60;80.10;;;;;;5045095;28;19908;-80
2023/07/10 14:20:37;;;;;;;;;;;18.70;80.20;;;;;;5054015;28;20270;-79
2023/07/10 14:23:11;;;;;;;;;;;18.80;80.20;;;;;;5054155;28;19909;-80
2023/07/10 14:25:37;;;;;;;;;;;18.90;80.10;;;;;;5056351;28;19948;-80
2023/07/10 14:28:02;;;;;;;;;;;18.90;80.10;;;;;;5055831;28;19916;-79
2023/07/10 14:30:28;;;;;;;;;;;18.90;80.40;;;;;;5054590;28;19909;-77
2023/07/10 14:32:54;;;;;;;;;;;18.80;80.30;;;;;;5056173;28;19952;-79
2023/07/10 14:35:20;;;;;;;;;;;18.80;80.40;;;;;;5054597;28;19921;-79
2023/07/10 14:37:48;;;;;;;;;;;18.70;81.10;;;;;;5054442;28;19908;-78
2023/07/10 14:40:17;;;;;;;;;;;18.60;81.60;;;;;;5053981;28;20406;-78
2023/07/10 14:42:43;;;;;;;;;;;18.50;81.80;;;;;;5053405;28;19917;-79
2023/07/10 14:45:15;;;;;;;;;;;18.50;83.50;;;;;;5053041;28;20067;-80
2023/07/10 14:47:42;;;;;;;;;;;18.30;83.60;;;;;;5052773;28;20409;-79
2023/07/10 14:50:11;;;;;;;;;;;18.30;83.70;;;;;;5052815;28;20007;-80
2023/07/10 14:52:38;;;;;;;;;;;18.20;84.50;;;;;;5051697;28;19920;-79
2023/07/10 14:55:04;;;;;;;;;;;18.20;84.70;;;;;;5052801;28;20301;-79
2023/07/10 14:57:31;;;;;;;;;;;18.10;84.70;;;;;;5061821;28;19915;-80
2023/07/10 14:59:58;;;;;;;;;;;18.10;84.90;;;;;;5053008;28;20370;-79
2023/07/10 15:02:25;;;;;;;;;;;18.00;85.10;;;;;;5052962;28;20007;-80